sensor_id;sensor_type;location;lat;lon;timestamp;P1;durP1;ratioP1;P2;durP2;ratioP2
66129;SDS011;52930;51.464;11.764;2022-10-26T00:00:47;9.77;;;4.15;;
66129;SDS011;52930;51.464;11.764;2022-10-26T00:03:13;9.77;;;4.18;;
66129;SDS011;52930;51.464;11.764;2022-10-26T00:05:39;10.30;;;4.20;;
66129;SDS011;52930;51.464;11.764;2022-10-26T00:08:04;8.05;;;3.28;;
66129;SDS011;52930;51.464;11.764;2022-10-26T00:10:30;9.70;;;4.00;;
66129;SDS011;52930;51.464;11.764;2022-10-26T00:12:58;11.63;;;4.15;;
66129;SDS011;52930;51.464;11.764;2022-10-26T00:15:23;9.37;;;3.90;;
66129;SDS011;52930;51.464;11.764;2022-10-26T00:17:49;10.47;;;4.07;;
66129;SDS011;52930;51.464;11.764;2022-10-26T00:20:14;12.48;;;4.47;;
66129;SDS011;52930;51.464;11.764;2022-10-26T00:22:40;15.70;;;5.00;;
66129;SDS011;52930;51.464;11.764;2022-10-26T00:25:06;11.53;;;4.30;;
66129;SDS011;52930;51.464;11.764;2022-10-26T00:27:31;11.05;;;4.38;;
66129;SDS011;52930;51.464;11.764;2022-10-26T00:29:59;12.88;;;4.47;;
66129;SDS011;52930;51.464;11.764;2022-10-26T00:32:25;11.43;;;4.53;;
66129;SDS011;52930;51.464;11.764;2022-10-26T00:34:50;12.37;;;4.70;;
66129;SDS011;52930;51.464;11.764;2022-10-26T00:37:16;11.33;;;4.97;;
66129;SDS011;52930;51.464;11.764;2022-10-26T00:39:41;10.90;;;4.45;;
66129;SDS011;52930;51.464;11.764;2022-10-26T00:42:09;10.00;;;4.78;;
66129;SDS011;52930;51.464;11.764;2022-10-26T00:49:40;10.20;;;4.00;;
66129;SDS011;52930;51.464;11.764;2022-10-26T00:52:10;11.40;;;4.53;;
66129;SDS011;52930;51.464;11.764;2022-10-26T00:54:36;13.68;;;4.53;;
66129;SDS011;52930;51.464;11.764;2022-10-26T00:57:02;9.90;;;4.30;;
66129;SDS011;52930;51.464;11.764;2022-10-26T00:59:27;11.63;;;3.67;;
66129;SDS011;52930;51.464;11.764;2022-10-26T01:01:52;7.93;;;3.83;;
66129;SDS011;52930;51.464;11.764;2022-10-26T01:04:18;8.90;;;3.63;;
66129;SDS011;52930;51.464;11.764;2022-10-26T01:06:44;8.87;;;3.50;;
66129;SDS011;52930;51.464;11.764;2022-10-26T01:09:10;9.18;;;3.40;;
66129;SDS011;52930;51.464;11.764;2022-10-26T01:11:36;9.32;;;3.83;;
66129;SDS011;52930;51.464;11.764;2022-10-26T01:14:02;9.60;;;3.67;;
66129;SDS011;52930;51.464;11.764;2022-10-26T01:31:55;9.50;;;3.88;;
66129;SDS011;52930;51.464;11.764;2022-10-26T01:34:33;11.27;;;4.03;;
66129;SDS011;52930;51.464;11.764;2022-10-26T01:37:12;9.70;;;3.95;;
66129;SDS011;52930;51.464;11.764;2022-10-26T01:39:46;7.68;;;3.80;;
66129;SDS011;52930;51.464;11.764;2022-10-26T01:42:14;13.68;;;4.07;;
66129;SDS011;52930;51.464;11.764;2022-10-26T01:44:42;10.02;;;4.20;;
66129;SDS011;52930;51.464;11.764;2022-10-26T01:47:12;8.95;;;4.07;;
66129;SDS011;52930;51.464;11.764;2022-10-26T01:49:40;9.07;;;3.80;;
66129;SDS011;52930;51.464;11.764;2022-10-26T01:52:08;8.25;;;3.72;;
66129;SDS011;52930;51.464;11.764;2022-10-26T01:54:34;9.50;;;4.30;;
66129;SDS011;52930;51.464;11.764;2022-10-26T01:57:01;11.00;;;3.95;;
66129;SDS011;52930;51.464;11.764;2022-10-26T02:05:04;9.10;;;4.05;;
66129;SDS011;52930;51.464;11.764;2022-10-26T02:13:07;14.60;;;4.30;;
66129;SDS011;52930;51.464;11.764;2022-10-26T02:15:39;10.98;;;4.00;;
66129;SDS011;52930;51.464;11.764;2022-10-26T02:21:14;7.50;;;3.75;;
66129;SDS011;52930;51.464;11.764;2022-10-26T02:23:41;9.23;;;3.67;;
66129;SDS011;52930;51.464;11.764;2022-10-26T02:26:09;14.10;;;3.88;;
66129;SDS011;52930;51.464;11.764;2022-10-26T02:28:39;8.90;;;3.78;;
66129;SDS011;52930;51.464;11.764;2022-10-26T02:31:07;12.23;;;4.38;;
66129;SDS011;52930;51.464;11.764;2022-10-26T02:33:35;9.35;;;3.58;;
66129;SDS011;52930;51.464;11.764;2022-10-26T02:36:02;11.23;;;4.10;;
66129;SDS011;52930;51.464;11.764;2022-10-26T02:38:30;8.02;;;3.70;;
66129;SDS011;52930;51.464;11.764;2022-10-26T02:40:57;10.70;;;4.03;;
66129;SDS011;52930;51.464;11.764;2022-10-26T02:43:24;11.13;;;3.97;;
66129;SDS011;52930;51.464;11.764;2022-10-26T02:45:56;11.60;;;4.60;;
66129;SDS011;52930;51.464;11.764;2022-10-26T02:48:24;10.60;;;4.25;;
66129;SDS011;52930;51.464;11.764;2022-10-26T02:53:26;11.32;;;3.47;;
66129;SDS011;52930;51.464;11.764;2022-10-26T02:55:56;10.75;;;4.22;;
66129;SDS011;52930;51.464;11.764;2022-10-26T02:58:24;9.38;;;3.88;;
66129;SDS011;52930;51.464;11.764;2022-10-26T03:00:53;11.40;;;3.72;;
66129;SDS011;52930;51.464;11.764;2022-10-26T03:03:18;10.55;;;4.03;;
66129;SDS011;52930;51.464;11.764;2022-10-26T03:05:44;8.47;;;3.63;;
66129;SDS011;52930;51.464;11.764;2022-10-26T03:08:09;10.30;;;3.23;;
66129;SDS011;52930;51.464;11.764;2022-10-26T03:10:43;10.35;;;3.83;;
66129;SDS011;52930;51.464;11.764;2022-10-26T03:13:10;10.07;;;3.70;;
66129;SDS011;52930;51.464;11.764;2022-10-26T03:15:36;11.40;;;4.45;;
66129;SDS011;52930;51.464;11.764;2022-10-26T03:18:02;13.07;;;4.20;;
66129;SDS011;52930;51.464;11.764;2022-10-26T03:20:28;9.65;;;4.05;;
66129;SDS011;52930;51.464;11.764;2022-10-26T03:22:53;10.55;;;4.57;;
66129;SDS011;52930;51.464;11.764;2022-10-26T03:25:21;12.15;;;4.25;;
66129;SDS011;52930;51.464;11.764;2022-10-26T03:27:46;9.05;;;3.97;;
66129;SDS011;52930;51.464;11.764;2022-10-26T03:30:12;10.40;;;4.00;;
66129;SDS011;52930;51.464;11.764;2022-10-26T03:32:37;9.05;;;3.30;;
66129;SDS011;52930;51.464;11.764;2022-10-26T03:35:03;11.47;;;3.80;;
66129;SDS011;52930;51.464;11.764;2022-10-26T03:37:28;10.90;;;4.00;;
66129;SDS011;52930;51.464;11.764;2022-10-26T03:39:54;9.60;;;4.00;;
66129;SDS011;52930;51.464;11.764;2022-10-26T03:42:19;13.15;;;3.92;;
66129;SDS011;52930;51.464;11.764;2022-10-26T03:44:44;12.27;;;4.55;;
66129;SDS011;52930;51.464;11.764;2022-10-26T03:47:11;13.43;;;5.07;;
66129;SDS011;52930;51.464;11.764;2022-10-26T03:49:36;10.00;;;4.53;;
66129;SDS011;52930;51.464;11.764;2022-10-26T03:52:02;11.20;;;4.93;;
66129;SDS011;52930;51.464;11.764;2022-10-26T03:54:27;12.60;;;4.13;;
66129;SDS011;52930;51.464;11.764;2022-10-26T03:56:52;10.83;;;4.73;;
66129;SDS011;52930;51.464;11.764;2022-10-26T03:59:18;10.67;;;4.10;;
66129;SDS011;52930;51.464;11.764;2022-10-26T04:01:43;11.90;;;4.30;;
66129;SDS011;52930;51.464;11.764;2022-10-26T04:04:09;10.33;;;4.77;;
66129;SDS011;52930;51.464;11.764;2022-10-26T04:06:34;10.33;;;4.50;;
66129;SDS011;52930;51.464;11.764;2022-10-26T04:08:59;12.07;;;4.47;;
66129;SDS011;52930;51.464;11.764;2022-10-26T04:11:27;10.15;;;4.10;;
66129;SDS011;52930;51.464;11.764;2022-10-26T04:13:52;12.60;;;4.50;;
66129;SDS011;52930;51.464;11.764;2022-10-26T04:16:19;10.27;;;4.10;;
66129;SDS011;52930;51.464;11.764;2022-10-26T04:18:44;9.77;;;3.77;;
66129;SDS011;52930;51.464;11.764;2022-10-26T04:21:10;10.47;;;3.47;;
66129;SDS011;52930;51.464;11.764;2022-10-26T04:23:35;10.45;;;3.72;;
66129;SDS011;52930;51.464;11.764;2022-10-26T04:26:03;10.10;;;3.80;;
66129;SDS011;52930;51.464;11.764;2022-10-26T04:28:29;9.65;;;3.72;;
66129;SDS011;52930;51.464;11.764;2022-10-26T04:30:54;9.73;;;4.10;;
66129;SDS011;52930;51.464;11.764;2022-10-26T04:33:20;8.87;;;3.70;;
66129;SDS011;52930;51.464;11.764;2022-10-26T04:35:45;8.23;;;3.73;;
66129;SDS011;52930;51.464;11.764;2022-10-26T04:38:12;11.85;;;4.25;;
66129;SDS011;52930;51.464;11.764;2022-10-26T04:40:37;10.00;;;3.77;;
66129;SDS011;52930;51.464;11.764;2022-10-26T04:43:03;9.63;;;4.10;;
66129;SDS011;52930;51.464;11.764;2022-10-26T04:45:28;10.40;;;4.03;;
66129;SDS011;52930;51.464;11.764;2022-10-26T04:47:58;11.77;;;3.90;;
66129;SDS011;52930;51.464;11.764;2022-10-26T04:50:24;10.43;;;3.60;;
66129;SDS011;52930;51.464;11.764;2022-10-26T04:52:51;9.45;;;4.03;;
66129;SDS011;52930;51.464;11.764;2022-10-26T04:55:17;9.47;;;3.30;;
66129;SDS011;52930;51.464;11.764;2022-10-26T04:57:43;8.57;;;3.50;;
66129;SDS011;52930;51.464;11.764;2022-10-26T05:00:08;10.93;;;4.05;;
66129;SDS011;52930;51.464;11.764;2022-10-26T05:02:34;11.85;;;3.67;;
66129;SDS011;52930;51.464;11.764;2022-10-26T05:05:00;10.30;;;4.60;;
66129;SDS011;52930;51.464;11.764;2022-10-26T05:07:25;8.63;;;3.80;;
66129;SDS011;52930;51.464;11.764;2022-10-26T05:09:51;9.63;;;4.47;;
66129;SDS011;52930;51.464;11.764;2022-10-26T05:12:16;10.77;;;3.97;;
66129;SDS011;52930;51.464;11.764;2022-10-26T05:14:41;9.73;;;4.10;;
66129;SDS011;52930;51.464;11.764;2022-10-26T05:17:07;14.13;;;4.10;;
66129;SDS011;52930;51.464;11.764;2022-10-26T05:19:32;8.23;;;3.80;;
66129;SDS011;52930;51.464;11.764;2022-10-26T05:21:57;8.27;;;3.60;;
66129;SDS011;52930;51.464;11.764;2022-10-26T05:24:23;8.10;;;3.80;;
66129;SDS011;52930;51.464;11.764;2022-10-26T05:26:48;9.00;;;3.80;;
66129;SDS011;52930;51.464;11.764;2022-10-26T05:29:14;9.05;;;3.92;;
66129;SDS011;52930;51.464;11.764;2022-10-26T05:31:40;9.27;;;3.77;;
66129;SDS011;52930;51.464;11.764;2022-10-26T05:34:05;9.33;;;4.10;;
66129;SDS011;52930;51.464;11.764;2022-10-26T05:36:30;9.18;;;3.92;;
66129;SDS011;52930;51.464;11.764;2022-10-26T05:38:56;9.95;;;4.13;;
66129;SDS011;52930;51.464;11.764;2022-10-26T05:41:22;11.75;;;4.45;;
66129;SDS011;52930;51.464;11.764;2022-10-26T05:43:48;11.25;;;4.32;;
66129;SDS011;52930;51.464;11.764;2022-10-26T05:46:13;12.87;;;5.03;;
66129;SDS011;52930;51.464;11.764;2022-10-26T05:48:39;11.23;;;3.97;;
66129;SDS011;52930;51.464;11.764;2022-10-26T05:51:04;15.13;;;5.07;;
66129;SDS011;52930;51.464;11.764;2022-10-26T05:53:29;14.70;;;5.22;;
66129;SDS011;52930;51.464;11.764;2022-10-26T05:55:55;9.98;;;4.50;;
66129;SDS011;52930;51.464;11.764;2022-10-26T05:58:21;12.77;;;4.80;;
66129;SDS011;52930;51.464;11.764;2022-10-26T06:01:00;10.85;;;4.38;;
66129;SDS011;52930;51.464;11.764;2022-10-26T06:06:46;9.70;;;4.50;;
66129;SDS011;52930;51.464;11.764;2022-10-26T06:09:17;11.05;;;4.50;;
66129;SDS011;52930;51.464;11.764;2022-10-26T06:11:43;9.90;;;4.33;;
66129;SDS011;52930;51.464;11.764;2022-10-26T06:14:09;9.07;;;4.38;;
66129;SDS011;52930;51.464;11.764;2022-10-26T06:22:07;10.43;;;4.38;;
66129;SDS011;52930;51.464;11.764;2022-10-26T06:30:38;11.57;;;4.68;;
66129;SDS011;52930;51.464;11.764;2022-10-26T06:33:04;12.20;;;4.75;;
66129;SDS011;52930;51.464;11.764;2022-10-26T06:38:02;9.45;;;5.00;;
66129;SDS011;52930;51.464;11.764;2022-10-26T06:40:30;13.27;;;4.78;;
66129;SDS011;52930;51.464;11.764;2022-10-26T06:42:56;10.27;;;4.90;;
66129;SDS011;52930;51.464;11.764;2022-10-26T06:45:22;11.00;;;4.83;;
66129;SDS011;52930;51.464;11.764;2022-10-26T06:48:07;13.40;;;5.10;;
66129;SDS011;52930;51.464;11.764;2022-10-26T06:50:45;10.77;;;4.88;;
66129;SDS011;52930;51.464;11.764;2022-10-26T06:56:05;12.85;;;4.70;;
66129;SDS011;52930;51.464;11.764;2022-10-26T06:58:32;13.05;;;5.30;;
66129;SDS011;52930;51.464;11.764;2022-10-26T07:00:59;11.33;;;5.20;;
66129;SDS011;52930;51.464;11.764;2022-10-26T07:03:25;10.65;;;4.95;;
66129;SDS011;52930;51.464;11.764;2022-10-26T07:05:50;13.33;;;5.07;;
66129;SDS011;52930;51.464;11.764;2022-10-26T07:08:16;11.82;;;5.07;;
66129;SDS011;52930;51.464;11.764;2022-10-26T07:10:41;11.47;;;4.73;;
66129;SDS011;52930;51.464;11.764;2022-10-26T07:13:08;10.00;;;5.00;;
66129;SDS011;52930;51.464;11.764;2022-10-26T07:15:34;12.60;;;5.18;;
66129;SDS011;52930;51.464;11.764;2022-10-26T07:18:00;10.50;;;4.83;;
66129;SDS011;52930;51.464;11.764;2022-10-26T07:20:29;12.15;;;4.85;;
66129;SDS011;52930;51.464;11.764;2022-10-26T07:22:55;10.60;;;4.90;;
66129;SDS011;52930;51.464;11.764;2022-10-26T07:25:21;11.50;;;4.60;;
66129;SDS011;52930;51.464;11.764;2022-10-26T07:27:48;11.55;;;4.28;;
66129;SDS011;52930;51.464;11.764;2022-10-26T07:30:13;9.17;;;4.57;;
66129;SDS011;52930;51.464;11.764;2022-10-26T07:32:38;10.45;;;4.43;;
66129;SDS011;52930;51.464;11.764;2022-10-26T07:35:04;9.70;;;4.60;;
66129;SDS011;52930;51.464;11.764;2022-10-26T07:37:30;9.20;;;4.07;;
66129;SDS011;52930;51.464;11.764;2022-10-26T07:39:55;11.37;;;4.70;;
66129;SDS011;52930;51.464;11.764;2022-10-26T07:42:20;9.98;;;3.80;;
66129;SDS011;52930;51.464;11.764;2022-10-26T07:44:46;11.07;;;4.53;;
66129;SDS011;52930;51.464;11.764;2022-10-26T07:47:11;10.47;;;4.33;;
66129;SDS011;52930;51.464;11.764;2022-10-26T07:49:36;9.63;;;4.53;;
66129;SDS011;52930;51.464;11.764;2022-10-26T07:52:02;11.57;;;4.30;;
66129;SDS011;52930;51.464;11.764;2022-10-26T07:54:27;13.35;;;5.38;;
66129;SDS011;52930;51.464;11.764;2022-10-26T07:56:53;13.67;;;6.27;;
66129;SDS011;52930;51.464;11.764;2022-10-26T07:59:18;14.43;;;6.80;;
66129;SDS011;52930;51.464;11.764;2022-10-26T08:01:43;17.50;;;8.37;;
66129;SDS011;52930;51.464;11.764;2022-10-26T08:04:09;17.87;;;8.83;;
66129;SDS011;52930;51.464;11.764;2022-10-26T08:06:35;20.40;;;8.45;;
66129;SDS011;52930;51.464;11.764;2022-10-26T08:09:00;18.13;;;8.53;;
66129;SDS011;52930;51.464;11.764;2022-10-26T08:11:26;15.70;;;8.80;;
66129;SDS011;52930;51.464;11.764;2022-10-26T08:13:52;17.75;;;9.10;;
66129;SDS011;52930;51.464;11.764;2022-10-26T08:16:17;16.30;;;8.75;;
66129;SDS011;52930;51.464;11.764;2022-10-26T08:18:43;17.42;;;9.25;;
66129;SDS011;52930;51.464;11.764;2022-10-26T08:21:10;17.80;;;8.67;;
66129;SDS011;52930;51.464;11.764;2022-10-26T08:23:38;18.67;;;8.20;;
66129;SDS011;52930;51.464;11.764;2022-10-26T08:26:04;17.10;;;8.70;;
66129;SDS011;52930;51.464;11.764;2022-10-26T08:28:30;14.73;;;8.30;;
66129;SDS011;52930;51.464;11.764;2022-10-26T08:30:55;13.47;;;7.80;;
66129;SDS011;52930;51.464;11.764;2022-10-26T08:33:21;17.65;;;8.82;;
66129;SDS011;52930;51.464;11.764;2022-10-26T08:35:47;17.00;;;7.30;;
66129;SDS011;52930;51.464;11.764;2022-10-26T08:38:13;16.15;;;7.03;;
66129;SDS011;52930;51.464;11.764;2022-10-26T08:40:39;13.63;;;7.37;;
66129;SDS011;52930;51.464;11.764;2022-10-26T08:43:12;14.13;;;7.50;;
66129;SDS011;52930;51.464;11.764;2022-10-26T08:45:43;15.00;;;8.07;;
66129;SDS011;52930;51.464;11.764;2022-10-26T08:48:17;15.02;;;7.60;;
66129;SDS011;52930;51.464;11.764;2022-10-26T08:51:28;16.25;;;7.00;;
66129;SDS011;52930;51.464;11.764;2022-10-26T08:53:37;14.87;;;7.00;;
66129;SDS011;52930;51.464;11.764;2022-10-26T08:56:09;12.38;;;6.32;;
66129;SDS011;52930;51.464;11.764;2022-10-26T08:58:39;11.35;;;5.70;;
66129;SDS011;52930;51.464;11.764;2022-10-26T09:01:08;12.48;;;5.40;;
66129;SDS011;52930;51.464;11.764;2022-10-26T09:03:33;9.13;;;4.33;;
66129;SDS011;52930;51.464;11.764;2022-10-26T09:13:40;9.80;;;4.10;;
66129;SDS011;52930;51.464;11.764;2022-10-26T09:16:30;10.98;;;4.40;;
66129;SDS011;52930;51.464;11.764;2022-10-26T09:19:10;9.65;;;3.70;;
66129;SDS011;52930;51.464;11.764;2022-10-26T09:24:48;8.70;;;3.87;;
66129;SDS011;52930;51.464;11.764;2022-10-26T09:27:29;7.95;;;3.80;;
66129;SDS011;52930;51.464;11.764;2022-10-26T09:29:58;10.60;;;4.10;;
66129;SDS011;52930;51.464;11.764;2022-10-26T09:32:42;8.43;;;3.75;;
66129;SDS011;52930;51.464;11.764;2022-10-26T09:35:27;10.75;;;3.33;;
66129;SDS011;52930;51.464;11.764;2022-10-26T09:38:15;8.63;;;3.40;;
66129;SDS011;52930;51.464;11.764;2022-10-26T09:43:42;11.70;;;3.10;;
66129;SDS011;52930;51.464;11.764;2022-10-26T09:46:24;9.90;;;2.85;;
66129;SDS011;52930;51.464;11.764;2022-10-26T09:49:20;7.25;;;2.70;;
66129;SDS011;52930;51.464;11.764;2022-10-26T09:51:50;9.37;;;2.80;;
66129;SDS011;52930;51.464;11.764;2022-10-26T09:54:17;7.90;;;2.40;;
66129;SDS011;52930;51.464;11.764;2022-10-26T09:56:45;9.80;;;2.70;;
66129;SDS011;52930;51.464;11.764;2022-10-26T09:59:12;7.95;;;2.30;;
66129;SDS011;52930;51.464;11.764;2022-10-26T10:01:39;6.90;;;2.55;;
66129;SDS011;52930;51.464;11.764;2022-10-26T10:04:09;7.60;;;2.43;;
66129;SDS011;52930;51.464;11.764;2022-10-26T10:06:42;8.25;;;2.70;;
66129;SDS011;52930;51.464;11.764;2022-10-26T10:09:09;9.35;;;2.58;;
66129;SDS011;52930;51.464;11.764;2022-10-26T10:14:19;6.50;;;2.13;;
66129;SDS011;52930;51.464;11.764;2022-10-26T10:16:50;8.37;;;2.77;;
66129;SDS011;52930;51.464;11.764;2022-10-26T10:21:53;6.93;;;2.40;;
66129;SDS011;52930;51.464;11.764;2022-10-26T10:24:24;8.32;;;2.90;;
66129;SDS011;52930;51.464;11.764;2022-10-26T10:29:45;5.93;;;2.78;;
66129;SDS011;52930;51.464;11.764;2022-10-26T10:32:15;7.85;;;2.58;;
66129;SDS011;52930;51.464;11.764;2022-10-26T10:34:54;6.85;;;2.60;;
66129;SDS011;52930;51.464;11.764;2022-10-26T10:37:22;8.23;;;2.67;;
66129;SDS011;52930;51.464;11.764;2022-10-26T10:39:49;7.18;;;2.50;;
66129;SDS011;52930;51.464;11.764;2022-10-26T10:42:16;7.80;;;2.07;;
66129;SDS011;52930;51.464;11.764;2022-10-26T10:44:45;7.78;;;2.45;;
66129;SDS011;52930;51.464;11.764;2022-10-26T10:47:18;7.53;;;1.80;;
66129;SDS011;52930;51.464;11.764;2022-10-26T10:50:29;6.70;;;1.87;;
66129;SDS011;52930;51.464;11.764;2022-10-26T10:52:38;4.78;;;1.70;;
66129;SDS011;52930;51.464;11.764;2022-10-26T10:55:19;5.97;;;1.80;;
66129;SDS011;52930;51.464;11.764;2022-10-26T11:00:20;5.88;;;1.95;;
66129;SDS011;52930;51.464;11.764;2022-10-26T11:05:38;6.22;;;2.15;;
66129;SDS011;52930;51.464;11.764;2022-10-26T11:08:31;6.38;;;2.15;;
66129;SDS011;52930;51.464;11.764;2022-10-26T11:10:59;5.43;;;1.73;;
66129;SDS011;52930;51.464;11.764;2022-10-26T11:13:51;7.82;;;1.90;;
66129;SDS011;52930;51.464;11.764;2022-10-26T11:16:27;6.85;;;1.80;;
66129;SDS011;52930;51.464;11.764;2022-10-26T11:18:59;6.40;;;1.80;;
66129;SDS011;52930;51.464;11.764;2022-10-26T11:21:29;6.30;;;1.60;;
66129;SDS011;52930;51.464;11.764;2022-10-26T11:29:17;7.05;;;1.75;;
66129;SDS011;52930;51.464;11.764;2022-10-26T11:31:46;6.97;;;1.80;;
66129;SDS011;52930;51.464;11.764;2022-10-26T11:37:13;6.17;;;1.70;;
66129;SDS011;52930;51.464;11.764;2022-10-26T11:39:45;4.97;;;1.77;;
66129;SDS011;52930;51.464;11.764;2022-10-26T11:42:27;5.65;;;1.70;;
66129;SDS011;52930;51.464;11.764;2022-10-26T11:45:07;5.85;;;1.70;;
66129;SDS011;52930;51.464;11.764;2022-10-26T11:47:38;6.00;;;1.92;;
66129;SDS011;52930;51.464;11.764;2022-10-26T11:50:05;4.90;;;1.67;;
66129;SDS011;52930;51.464;11.764;2022-10-26T11:52:46;5.47;;;1.92;;
66129;SDS011;52930;51.464;11.764;2022-10-26T11:55:14;5.75;;;1.90;;
66129;SDS011;52930;51.464;11.764;2022-10-26T11:57:39;9.50;;;2.27;;
66129;SDS011;52930;51.464;11.764;2022-10-26T12:00:14;6.80;;;2.30;;
66129;SDS011;52930;51.464;11.764;2022-10-26T12:02:41;9.15;;;2.55;;
66129;SDS011;52930;51.464;11.764;2022-10-26T12:07:38;5.60;;;2.00;;
66129;SDS011;52930;51.464;11.764;2022-10-26T12:10:05;6.13;;;1.90;;
66129;SDS011;52930;51.464;11.764;2022-10-26T12:12:47;7.68;;;1.90;;
66129;SDS011;52930;51.464;11.764;2022-10-26T12:15:22;5.33;;;1.90;;
66129;SDS011;52930;51.464;11.764;2022-10-26T12:17:58;5.93;;;1.85;;
66129;SDS011;52930;51.464;11.764;2022-10-26T12:23:19;7.13;;;1.80;;
66129;SDS011;52930;51.464;11.764;2022-10-26T12:25:46;6.97;;;2.03;;
66129;SDS011;52930;51.464;11.764;2022-10-26T12:39:34;8.20;;;1.80;;
66129;SDS011;52930;51.464;11.764;2022-10-26T12:44:31;6.95;;;1.88;;
66129;SDS011;52930;51.464;11.764;2022-10-26T12:46:56;4.87;;;1.80;;
66129;SDS011;52930;51.464;11.764;2022-10-26T12:52:31;6.43;;;1.87;;
66129;SDS011;52930;51.464;11.764;2022-10-26T13:00:25;6.13;;;1.60;;
66129;SDS011;52930;51.464;11.764;2022-10-26T13:08:36;5.88;;;2.22;;
66129;SDS011;52930;51.464;11.764;2022-10-26T13:11:20;5.50;;;1.98;;
66129;SDS011;52930;51.464;11.764;2022-10-26T13:13:56;6.32;;;1.92;;
66129;SDS011;52930;51.464;11.764;2022-10-26T13:16:23;5.72;;;1.80;;
66129;SDS011;52930;51.464;11.764;2022-10-26T13:18:49;6.10;;;1.97;;
66129;SDS011;52930;51.464;11.764;2022-10-26T13:21:15;5.63;;;2.50;;
66129;SDS011;52930;51.464;11.764;2022-10-26T13:23:45;7.53;;;2.17;;
66129;SDS011;52930;51.464;11.764;2022-10-26T13:26:13;7.45;;;1.70;;
66129;SDS011;52930;51.464;11.764;2022-10-26T13:28:45;6.70;;;1.95;;
66129;SDS011;52930;51.464;11.764;2022-10-26T13:33:49;6.40;;;1.95;;
66129;SDS011;52930;51.464;11.764;2022-10-26T13:36:17;6.23;;;2.10;;
66129;SDS011;52930;51.464;11.764;2022-10-26T13:39:17;6.90;;;2.78;;
66129;SDS011;52930;51.464;11.764;2022-10-26T13:42:02;6.40;;;2.33;;
66129;SDS011;52930;51.464;11.764;2022-10-26T13:47:27;7.20;;;2.30;;
66129;SDS011;52930;51.464;11.764;2022-10-26T13:50:37;7.70;;;2.00;;
66129;SDS011;52930;51.464;11.764;2022-10-26T13:52:44;6.68;;;1.70;;
66129;SDS011;52930;51.464;11.764;2022-10-26T13:55:14;9.23;;;2.30;;
66129;SDS011;52930;51.464;11.764;2022-10-26T14:00:29;6.30;;;2.22;;
66129;SDS011;52930;51.464;11.764;2022-10-26T14:02:54;7.73;;;2.70;;
66129;SDS011;52930;51.464;11.764;2022-10-26T14:05:20;5.87;;;2.33;;
66129;SDS011;52930;51.464;11.764;2022-10-26T14:12:54;6.53;;;2.60;;
66129;SDS011;52930;51.464;11.764;2022-10-26T14:15:23;9.02;;;3.10;;
66129;SDS011;52930;51.464;11.764;2022-10-26T14:17:51;7.15;;;2.58;;
66129;SDS011;52930;51.464;11.764;2022-10-26T14:20:17;6.00;;;2.43;;
66129;SDS011;52930;51.464;11.764;2022-10-26T14:22:44;11.05;;;2.75;;
66129;SDS011;52930;51.464;11.764;2022-10-26T14:25:17;6.90;;;2.30;;
66129;SDS011;52930;51.464;11.764;2022-10-26T14:27:44;5.72;;;2.30;;
66129;SDS011;52930;51.464;11.764;2022-10-26T14:30:26;11.50;;;2.70;;
66129;SDS011;52930;51.464;11.764;2022-10-26T14:32:54;6.63;;;2.22;;
66129;SDS011;52930;51.464;11.764;2022-10-26T14:35:21;7.28;;;2.45;;
66129;SDS011;52930;51.464;11.764;2022-10-26T14:38:01;9.45;;;2.55;;
66129;SDS011;52930;51.464;11.764;2022-10-26T14:40:28;8.43;;;2.53;;
66129;SDS011;52930;51.464;11.764;2022-10-26T14:42:58;7.05;;;2.65;;
66129;SDS011;52930;51.464;11.764;2022-10-26T14:45:28;9.75;;;2.17;;
66129;SDS011;52930;51.464;11.764;2022-10-26T14:48:01;6.40;;;2.30;;
66129;SDS011;52930;51.464;11.764;2022-10-26T14:50:28;9.10;;;2.50;;
66129;SDS011;52930;51.464;11.764;2022-10-26T14:55:25;6.75;;;2.30;;
66129;SDS011;52930;51.464;11.764;2022-10-26T14:57:52;7.47;;;2.05;;
66129;SDS011;52930;51.464;11.764;2022-10-26T15:00:30;7.03;;;2.30;;
66129;SDS011;52930;51.464;11.764;2022-10-26T15:02:56;6.97;;;2.60;;
66129;SDS011;52930;51.464;11.764;2022-10-26T15:07:47;9.87;;;2.50;;
66129;SDS011;52930;51.464;11.764;2022-10-26T15:13:15;7.57;;;2.67;;
66129;SDS011;52930;51.464;11.764;2022-10-26T15:16:18;8.20;;;2.77;;
66129;SDS011;52930;51.464;11.764;2022-10-26T15:18:56;7.20;;;2.42;;
66129;SDS011;52930;51.464;11.764;2022-10-26T15:21:25;6.80;;;3.00;;
66129;SDS011;52930;51.464;11.764;2022-10-26T15:23:58;6.63;;;2.70;;
66129;SDS011;52930;51.464;11.764;2022-10-26T15:26:25;8.20;;;3.00;;
66129;SDS011;52930;51.464;11.764;2022-10-26T15:28:50;17.87;;;3.23;;
66129;SDS011;52930;51.464;11.764;2022-10-26T15:36:17;8.32;;;2.88;;
66129;SDS011;52930;51.464;11.764;2022-10-26T15:38:43;7.43;;;2.47;;
66129;SDS011;52930;51.464;11.764;2022-10-26T15:43:47;5.68;;;2.38;;
66129;SDS011;52930;51.464;11.764;2022-10-26T15:46:14;6.93;;;2.90;;
66129;SDS011;52930;51.464;11.764;2022-10-26T15:48:39;6.97;;;2.20;;
66129;SDS011;52930;51.464;11.764;2022-10-26T15:51:11;5.80;;;1.90;;
66129;SDS011;52930;51.464;11.764;2022-10-26T15:53:40;5.97;;;1.90;;
66129;SDS011;52930;51.464;11.764;2022-10-26T15:56:24;6.97;;;2.20;;
66129;SDS011;52930;51.464;11.764;2022-10-26T15:58:50;6.30;;;2.20;;
66129;SDS011;52930;51.464;11.764;2022-10-26T16:01:17;6.78;;;1.80;;
66129;SDS011;52930;51.464;11.764;2022-10-26T16:03:44;5.72;;;1.90;;
66129;SDS011;52930;51.464;11.764;2022-10-26T16:06:16;9.07;;;2.17;;
66129;SDS011;52930;51.464;11.764;2022-10-26T16:08:56;6.38;;;1.95;;
66129;SDS011;52930;51.464;11.764;2022-10-26T16:11:22;6.03;;;2.00;;
66129;SDS011;52930;51.464;11.764;2022-10-26T16:13:48;8.93;;;2.57;;
66129;SDS011;52930;51.464;11.764;2022-10-26T16:16:14;11.38;;;5.20;;
66129;SDS011;52930;51.464;11.764;2022-10-26T16:18:40;8.13;;;3.60;;
66129;SDS011;52930;51.464;11.764;2022-10-26T16:21:10;8.57;;;3.50;;
66129;SDS011;52930;51.464;11.764;2022-10-26T16:23:36;10.57;;;4.53;;
66129;SDS011;52930;51.464;11.764;2022-10-26T16:26:02;8.10;;;3.65;;
66129;SDS011;52930;51.464;11.764;2022-10-26T16:28:28;15.33;;;7.47;;
66129;SDS011;52930;51.464;11.764;2022-10-26T16:31:00;19.80;;;8.27;;
66129;SDS011;52930;51.464;11.764;2022-10-26T16:33:26;17.40;;;9.17;;
66129;SDS011;52930;51.464;11.764;2022-10-26T16:35:55;23.42;;;9.77;;
66129;SDS011;52930;51.464;11.764;2022-10-26T16:38:21;21.45;;;9.82;;
66129;SDS011;52930;51.464;11.764;2022-10-26T16:40:47;18.67;;;8.65;;
66129;SDS011;52930;51.464;11.764;2022-10-26T16:43:12;17.43;;;8.90;;
66129;SDS011;52930;51.464;11.764;2022-10-26T16:45:38;17.93;;;7.70;;
66129;SDS011;52930;51.464;11.764;2022-10-26T16:48:04;18.77;;;6.30;;
66129;SDS011;52930;51.464;11.764;2022-10-26T16:50:34;10.02;;;4.28;;
66129;SDS011;52930;51.464;11.764;2022-10-26T16:52:59;12.93;;;4.67;;
66129;SDS011;52930;51.464;11.764;2022-10-26T16:55:25;13.83;;;5.40;;
66129;SDS011;52930;51.464;11.764;2022-10-26T16:57:50;15.23;;;6.30;;
66129;SDS011;52930;51.464;11.764;2022-10-26T17:00:16;10.50;;;5.00;;
66129;SDS011;52930;51.464;11.764;2022-10-26T17:02:41;12.35;;;3.55;;
66129;SDS011;52930;51.464;11.764;2022-10-26T17:05:07;7.90;;;3.80;;
66129;SDS011;52930;51.464;11.764;2022-10-26T17:07:33;11.48;;;3.92;;
66129;SDS011;52930;51.464;11.764;2022-10-26T17:09:59;10.60;;;3.80;;
66129;SDS011;52930;51.464;11.764;2022-10-26T17:12:24;8.55;;;3.80;;